Rock Spring, GA (30739)

3:29 PM EST on December 28, 2014 (GMT -0500)
Rock Spring WE4S | Change Station
CLOSE
Current Station
Personal Weather Station
Location: Rock Spring, GA
Elevation: 870 ft
Nearby Weather Stations
Active Advisory: Areal Flood Watch

Elev 870 ft 34.86 °N, 85.22 °W | Updated 4 minutes ago

Overcast
Overcast
58.3 °F
Feels Like 58.3 °F
N
1.0
Wind Variable Wind from NE
Gusts 2.0 mph

Today
High -- | Low -- °F
--% Chance of Precip.
Yesterday
High -- | Low -- °F
Precip. -- in
7:47 AM 5:37 PM
Waxing Crescent, 51% visible
Pressure 30.03 in
Visibility 10.0 miles
Clouds Mostly Cloudy 700 ft
Mostly Cloudy 1600 ft
Overcast 9000 ft
Dew Point 56 °F
Humidity 92%
Rainfall 0.43 in
Snow Depth Not available.
UV 1 out of 12
Pollen .10 out of 12
Air Quality Not available.
Flu Activity Not available.
METAR KCHA 281953Z 02003KT 10SM BKN007 BKN016 OVC090 15/13 A3003 RMK AO2 SLP168 T01500128

More Conditions Fewer Conditions

Pressure 30.03 in
Visibility 10.0 miles
Clouds Mostly Cloudy 700 ft
Mostly Cloudy 1600 ft
Overcast 9000 ft
Dew Point 56 °F
Humidity 92%
Rainfall 0.43 in
Snow Depth Not available.
UV 1 out of 12
Pollen .10 out of 12
Air Quality Not available.
Flu Activity Not available.
METAR KCHA 281953Z 02003KT 10SM BKN007 BKN016 OVC090 15/13 A3003 RMK AO2 SLP168 T01500128

More Conditions Fewer Conditions

10-Day Weather Forecast

Almanac

Astronomy

Dec. 28, 2014 Rise Set
Actual Time
Civil Twilight
Nautical Twilight
Astronomical Twilight
Moon
Length of Visible Light
Length of Day
Tomorrow will be .
, % of the Moon is Illuminated

Today's Extremes

State Highs State Lows

Community

WunderPhotos

Upload Photos

1,781,411 photos uploaded!

WunderBlogs® & News

Nearby

Air Quality

  Air Quality AQ Index Pollutant
Not available.

Snow Depth

Station Depth Elevation

Earthquake Activity

City Distance Mag. Time & Date
Minimum magnitude displayed is 2.5.

Coastal Water Temperatures

Place Temperature

Nearby Weather Stations